Tete-A-La-Baleine, Canada
Current Conditions -  °F | °C
As of 1:13 PM on Thursday 30 Oct 2014 (Local Time) from CWDH Reporting Station
Scattered Clouds Scattered Clouds  
Wind Chill: 37°   Ceiling: Unl
Heat Index: 45°   Visibility: 8mi
Dew Point: 43°   Wind: 21mph
Humidity: 91%   Direction: 210°SSW
Pressure: 29.51"   Gusts: 28mph
Location:  50.7°N, 59.33°W
Report Text: CWDH 301613Z AUTO 21018G24KT 8SM SCT002 07/06 A2951 RMK PK WND 20024/// T00740060 WSI/SWOB
Loading
Personal Weather Stations






























Interactive Weather Map
Tropical Storm Tracking
New forecast layout! Learn more

10-Day Weather Forecast

Advertisements
Track Severe Weather on mobile